createdAt,value
2022-08-07T00:00:52.549Z,99189.88
2022-08-07T00:03:20.365Z,99194.44
2022-08-07T00:05:54.308Z,99193.63
2022-08-07T00:08:25.184Z,99199.03
2022-08-07T00:10:57.482Z,99196.56
2022-08-07T00:13:26.910Z,99207.34
2022-08-07T00:15:55.297Z,99195.75
2022-08-07T00:18:25.334Z,99203.81
2022-08-07T00:20:56.739Z,99201.13
2022-08-07T00:23:25.401Z,99205.69
2022-08-07T00:26:00.041Z,99215.63
2022-08-07T00:28:33.674Z,99214.81
2022-08-07T00:31:06.096Z,99212.13
2022-08-07T00:33:41.250Z,99208.63
2022-08-07T00:36:10.087Z,99213.16
2022-08-07T00:38:38.967Z,99213.16
2022-08-07T00:41:10.026Z,99206.97
2022-08-07T00:44:01.960Z,99205.34
2022-08-07T00:46:33.004Z,99210.72
2022-08-07T00:49:02.998Z,99214.44
2022-08-07T00:51:57.526Z,99215.28
2022-08-07T00:54:19.799Z,99207.19
2022-08-07T00:56:49.832Z,99210.09
2022-08-07T00:59:20.324Z,99201.41
2022-08-07T01:02:13.891Z,99204.13
2022-08-07T01:04:58.359Z,99207.63
2022-08-07T01:07:29.480Z,99207.84
2022-08-07T01:10:06.557Z,99208.09
2022-08-07T01:12:53.349Z,99218.63
2022-08-07T01:16:00.696Z,99206.22
2022-08-07T01:18:16.766Z,99208.31
2022-08-07T01:21:05.377Z,99208.31
2022-08-07T01:23:51.657Z,99211.00
2022-08-07T01:26:20.814Z,99209.34
2022-08-07T01:28:50.673Z,99217.44
2022-08-07T01:31:21.288Z,99217.44
2022-08-07T01:33:55.267Z,99208.78
2022-08-07T01:36:33.494Z,99210.41
2022-08-07T01:39:04.189Z,99198.81
2022-08-07T01:41:40.778Z,99202.31
2022-08-07T01:44:22.768Z,99208.78
2022-08-07T01:46:52.088Z,99203.41
2022-08-07T01:49:21.463Z,99201.75
2022-08-07T01:52:01.884Z,99199.03
2022-08-07T01:54:41.652Z,99200.09
2022-08-07T01:57:27.553Z,99194.94
2022-08-07T02:00:12.853Z,99194.72
2022-08-07T02:03:18.136Z,99192.25
2022-08-07T02:05:48.092Z,99193.06
2022-08-07T02:08:29.412Z,99190.59
2022-08-07T02:11:00.953Z,99191.44
2022-08-07T02:13:57.841Z,99195.16
2022-08-07T02:16:28.606Z,99209.44
2022-08-07T02:20:04.937Z,99207.59
2022-08-07T02:21:58.660Z,99197.03
2022-08-07T02:24:29.511Z,99205.13
2022-08-07T02:27:02.749Z,99207.00
2022-08-07T02:29:36.817Z,99201.03
2022-08-07T02:32:18.871Z,99203.25
2022-08-07T02:34:52.164Z,99201.84
2022-08-07T02:37:23.675Z,99206.41
2022-08-07T02:40:02.150Z,99210.72
2022-08-07T02:42:41.797Z,99201.03
2022-08-07T02:45:58.511Z,99203.72
2022-08-07T02:48:01.981Z,99214.50
2022-08-07T02:50:34.306Z,99212.84
2022-08-07T02:53:10.969Z,99208.28
2022-08-07T02:56:04.469Z,99209.31
2022-08-07T02:58:34.977Z,99206.41
2022-08-07T03:01:04.175Z,99210.13
2022-08-07T03:03:49.093Z,99207.44
2022-08-07T03:06:26.103Z,99210.13
2022-08-07T03:09:06.167Z,99204.75
2022-08-07T03:11:38.959Z,99204.75
2022-08-07T03:14:22.573Z,99197.72
2022-08-07T03:16:50.953Z,99198.53
2022-08-07T03:19:20.731Z,99197.72
2022-08-07T03:21:51.193Z,99199.81
2022-08-07T03:24:27.366Z,99199.81
2022-08-07T03:27:00.853Z,99198.16
2022-08-07T03:29:38.585Z,99199.81
2022-08-07T03:32:14.766Z,99197.34
2022-08-07T03:34:47.447Z,99198.16
2022-08-07T03:37:37.335Z,99200.25
2022-08-07T03:40:15.578Z,99214.34
2022-08-07T03:42:44.039Z,99214.13
2022-08-07T03:45:12.364Z,99209.78
2022-08-07T03:47:59.665Z,99207.31
2022-08-07T03:50:29.065Z,99205.44
2022-08-07T03:52:59.262Z,99207.31
2022-08-07T03:55:57.490Z,99200.25
2022-08-07T03:59:05.520Z,99202.75
2022-08-07T04:01:11.331Z,99201.94
2022-08-07T04:03:53.831Z,99206.25
2022-08-07T04:06:37.258Z,99208.94
2022-08-07T04:09:15.026Z,99208.94
2022-08-07T04:12:25.548Z,99210.59
2022-08-07T04:14:43.888Z,99208.94
2022-08-07T04:17:20.565Z,99208.94
2022-08-07T04:19:52.818Z,99211.63
2022-08-07T04:22:27.401Z,99210.59
2022-08-07T04:25:01.517Z,99217.63
2022-08-07T04:27:35.668Z,99217.63
2022-08-07T04:30:11.658Z,99224.91
2022-08-07T04:32:58.573Z,99229.47
2022-08-07T04:35:26.790Z,99243.75
2022-08-07T04:38:05.387Z,99232.16
2022-08-07T04:40:51.391Z,99242.94
2022-08-07T04:44:09.922Z,99246.22
2022-08-07T04:46:59.650Z,99246.22
2022-08-07T04:49:47.575Z,99241.44
2022-08-07T04:52:59.282Z,99243.31
2022-08-07T04:58:23.767Z,99237.94
2022-08-07T05:00:07.945Z,99233.34
2022-08-07T05:01:52.330Z,99238.50
2022-08-07T05:04:26.343Z,99242.03
2022-08-07T05:07:09.573Z,99242.03
2022-08-07T05:09:55.019Z,99255.16
2022-08-07T05:12:30.602Z,99250.97
2022-08-07T05:15:21.801Z,99253.00
2022-08-07T05:17:58.251Z,99243.06
2022-08-07T05:20:37.974Z,99250.00
2022-08-07T05:23:17.766Z,99258.34
2022-08-07T05:26:11.084Z,99257.16
2022-08-07T05:28:40.482Z,99252.09
2022-08-07T05:31:11.466Z,99252.94
2022-08-07T05:34:00.993Z,99252.47
2022-08-07T05:36:32.400Z,99255.75
2022-08-07T05:40:06.821Z,99254.47
2022-08-07T05:42:01.779Z,99257.06
2022-08-07T05:44:35.126Z,99257.28
2022-08-07T05:47:38.568Z,99261.03
2022-08-07T05:49:52.961Z,99266.88
2022-08-07T05:52:32.580Z,99256.69
2022-08-07T05:55:10.297Z,99262.88
2022-08-07T05:57:42.282Z,99265.34
2022-08-07T06:00:16.134Z,99259.97
2022-08-07T06:02:49.327Z,99261.03
2022-08-07T06:05:18.191Z,99261.84
2022-08-07T06:08:13.169Z,99259.16
2022-08-07T06:10:38.837Z,99265.34
2022-08-07T06:13:06.309Z,99266.44
2022-08-07T06:15:42.991Z,99260.78
2022-08-07T06:18:13.924Z,99258.69
2022-08-07T06:20:51.127Z,99268.19
2022-08-07T06:24:37.816Z,99268.19
2022-08-07T06:26:20.780Z,99276.88
2022-08-07T06:28:53.610Z,99267.75
2022-08-07T06:31:24.270Z,99267.47
2022-08-07T06:34:09.529Z,99267.25
2022-08-07T06:36:38.135Z,99261.44
2022-08-07T06:40:13.411Z,99270.34
2022-08-07T06:42:32.997Z,99271.16
2022-08-07T06:45:04.665Z,99266.34
2022-08-07T06:47:38.745Z,99271.75
2022-08-07T06:50:20.473Z,99263.06
2022-08-07T06:52:53.624Z,99273.38
2022-08-07T06:56:00.436Z,99267.97
2022-08-07T06:58:21.485Z,99271.53
2022-08-07T07:00:53.215Z,99271.28
2022-08-07T07:03:39.741Z,99276.66
2022-08-07T07:06:11.409Z,99271.75
2022-08-07T07:08:39.870Z,99274.44
2022-08-07T07:12:08.478Z,99275.50
2022-08-07T07:14:03.997Z,99270.34
2022-08-07T07:16:49.683Z,99266.44
2022-08-07T07:19:55.547Z,99279.34
2022-08-07T07:22:39.868Z,99280.63
2022-08-07T07:26:30.773Z,99271.34
2022-08-07T07:28:07.573Z,99267.00
2022-08-07T07:31:00.008Z,99275.31
2022-08-07T07:33:30.576Z,99271.22
2022-08-07T07:36:05.650Z,99274.94
2022-08-07T07:38:43.546Z,99280.34
2022-08-07T07:41:16.642Z,99276.63
2022-08-07T07:43:47.907Z,99278.03
2022-08-07T07:46:54.097Z,99279.44
2022-08-07T07:50:34.646Z,99277.34
2022-08-07T07:52:18.761Z,99278.97
2022-08-07T07:54:50.592Z,99284.34
2022-08-07T07:57:43.955Z,99275.22
2022-08-07T08:00:15.072Z,99271.47
2022-08-07T08:03:07.843Z,99274.75
2022-08-07T08:05:50.954Z,99276.25
2022-08-07T08:08:35.160Z,99273.56
2022-08-07T08:11:16.548Z,99271.13
2022-08-07T08:13:54.728Z,99267.59
2022-08-07T08:16:36.980Z,99265.94
2022-08-07T08:19:17.934Z,99274.03
2022-08-07T08:22:16.676Z,99278.97
2022-08-07T08:25:24.612Z,99279.44
2022-08-07T08:28:01.796Z,99274.03
2022-08-07T08:30:37.488Z,99276.97
2022-08-07T08:33:17.004Z,99270.28
2022-08-07T08:35:49.859Z,99274.03
2022-08-07T08:38:29.602Z,99274.03
2022-08-07T08:41:56.742Z,99270.28
2022-08-07T08:44:58.384Z,99267.84
2022-08-07T08:47:47.383Z,99272.38
2022-08-07T08:50:45.397Z,99272.38
2022-08-07T08:53:19.724Z,99271.56
2022-08-07T08:56:08.437Z,99274.50
2022-08-07T08:58:58.043Z,99274.50
2022-08-07T09:01:44.165Z,99282.59
2022-08-07T09:04:28.680Z,99285.28
2022-08-07T09:07:11.269Z,99286.47
2022-08-07T09:10:02.546Z,99293.03
2022-08-07T09:12:40.003Z,99287.22
2022-08-07T09:16:22.941Z,99283.22
2022-08-07T09:18:53.410Z,99283.81
2022-08-07T09:22:10.019Z,99284.41
2022-08-07T09:24:55.522Z,99279.25
2022-08-07T09:28:00.413Z,99278.44
2022-08-07T09:30:45.415Z,99274.91
2022-08-07T09:33:57.620Z,99272.22
2022-08-07T09:36:43.146Z,99273.25
2022-08-07T09:39:55.454Z,99270.78
2022-08-07T09:42:33.889Z,99263.97
2022-08-07T09:46:29.095Z,99265.63
2022-08-07T09:48:25.130Z,99269.38
2022-08-07T09:52:09.973Z,99263.97
2022-08-07T09:54:27.263Z,99260.25
2022-08-07T09:57:13.037Z,99251.47
2022-08-07T10:00:02.013Z,99248.53
2022-08-07T10:03:08.554Z,99238.31
2022-08-07T10:05:59.739Z,99241.59
2022-08-07T10:09:00.452Z,99245.97
2022-08-07T10:12:02.249Z,99244.09
2022-08-07T10:15:00.473Z,99233.66
2022-08-07T10:18:00.976Z,99234.69
2022-08-07T10:20:57.605Z,99228.88
2022-08-07T10:24:05.156Z,99227.56
2022-08-07T10:26:51.760Z,99216.31
2022-08-07T10:29:53.060Z,99221.69
2022-08-07T10:32:59.948Z,99218.78
2022-08-07T10:35:55.567Z,99213.84
2022-08-07T10:38:48.990Z,99212.78
2022-08-07T10:41:51.452Z,99209.28
2022-08-07T10:45:45.116Z,99198.72
2022-08-07T10:48:35.516Z,99192.63
2022-08-07T10:51:16.598Z,99195.91
2022-08-07T10:54:40.878Z,99189.22
2022-08-07T10:57:51.531Z,99191.31
2022-08-07T11:00:39.294Z,99198.38
2022-08-07T11:03:37.332Z,99193.22
2022-08-07T11:06:32.488Z,99181.00
2022-08-07T11:09:11.496Z,99190.19
2022-08-07T11:11:59.141Z,99180.41
2022-08-07T11:14:46.453Z,99188.50
2022-08-07T11:17:43.270Z,99176.91
2022-08-07T11:20:31.340Z,99187.94
2022-08-07T11:23:20.853Z,99179.84
2022-08-07T11:26:13.176Z,99178.19
2022-08-07T11:28:58.429Z,99177.63
2022-08-07T11:31:37.402Z,99175.72
2022-08-07T11:34:11.282Z,99172.44
2022-08-07T11:37:13.269Z,99169.53
2022-08-07T11:40:05.691Z,99170.13
2022-08-07T11:42:52.813Z,99164.25
2022-08-07T11:45:35.875Z,99168.59
2022-08-07T11:48:13.909Z,99161.31
2022-08-07T11:51:09.759Z,99155.66
2022-08-07T11:54:01.390Z,99151.34
2022-08-07T11:56:59.211Z,99142.75
2022-08-07T12:00:10.493Z,99148.16
2022-08-07T12:02:57.432Z,99152.53
2022-08-07T12:05:49.013Z,99152.03
2022-08-07T12:08:34.919Z,99150.19
2022-08-07T12:11:23.901Z,99145.59
2022-08-07T12:14:20.818Z,99141.03
2022-08-07T12:16:58.736Z,99134.00
2022-08-07T12:19:35.943Z,99138.53
2022-08-07T12:22:47.247Z,99143.50
2022-08-07T12:26:03.493Z,99134.31
2022-08-07T12:29:16.036Z,99133.50
2022-08-07T12:32:04.055Z,99126.22
2022-08-07T12:34:35.951Z,99134.31
2022-08-07T12:37:08.642Z,99133.50
2022-08-07T12:39:51.491Z,99121.91
2022-08-07T12:42:27.670Z,99123.53
2022-08-07T12:45:07.262Z,99119.81
2022-08-07T12:47:49.224Z,99125.19
2022-08-07T12:50:38.088Z,99119.81
2022-08-07T12:53:18.994Z,99116.63
2022-08-07T12:56:02.796Z,99112.28
2022-08-07T12:58:37.497Z,99113.09
2022-08-07T13:01:32.907Z,99104.78
2022-08-07T13:04:32.530Z,99101.81
2022-08-07T13:08:11.647Z,99104.28
2022-08-07T13:10:37.086Z,99105.13
2022-08-07T13:13:47.116Z,99101.38
2022-08-07T13:16:22.821Z,99096.78
2022-08-07T13:19:35.055Z,99094.09
2022-08-07T13:22:32.117Z,99086.00
2022-08-07T13:25:10.365Z,99094.69
2022-08-07T13:28:11.370Z,99098.41
2022-08-07T13:30:44.195Z,99091.75
2022-08-07T13:34:29.889Z,99087.88
2022-08-07T13:36:19.376Z,99084.69
2022-08-07T13:39:12.776Z,99076.59
2022-08-07T13:41:57.929Z,99080.59
2022-08-07T13:44:34.300Z,99075.47
2022-08-07T13:47:09.206Z,99081.31
2022-08-07T13:50:34.995Z,99072.63
2022-08-07T13:52:38.079Z,99068.91
2022-08-07T13:55:19.486Z,99069.94
2022-08-07T13:58:50.485Z,99069.31
2022-08-07T14:01:27.366Z,99076.38
2022-08-07T14:04:07.774Z,99068.28
2022-08-07T14:06:39.128Z,99058.91
2022-08-07T14:10:01.279Z,99054.31
2022-08-07T14:12:13.745Z,99050.31
2022-08-07T14:14:44.854Z,99050.91
2022-08-07T14:18:13.588Z,99050.69
2022-08-07T14:20:40.932Z,99045.88
2022-08-07T14:23:14.777Z,99044.78
2022-08-07T14:26:05.523Z,99049.59
2022-08-07T14:28:59.633Z,99050.44
2022-08-07T14:31:26.132Z,99046.09
2022-08-07T14:34:20.236Z,99046.59
2022-08-07T14:36:56.230Z,99036.84
2022-08-07T14:40:17.797Z,99031.69
2022-08-07T14:42:20.640Z,99031.94
2022-08-07T14:44:53.735Z,99027.34
2022-08-07T14:47:33.738Z,99023.25
2022-08-07T14:50:07.006Z,99012.44
2022-08-07T14:52:39.953Z,99017.34
2022-08-07T14:55:11.382Z,99014.44
2022-08-07T14:57:58.387Z,99015.59
2022-08-07T15:00:31.077Z,99016.75
2022-08-07T15:03:19.130Z,99018.16
2022-08-07T15:08:54.620Z,99003.34
2022-08-07T15:11:53.250Z,99000.66
2022-08-07T15:14:22.847Z,99005.47
2022-08-07T15:17:16.778Z,99008.09
2022-08-07T15:20:33.445Z,99005.28
2022-08-07T15:22:53.744Z,99004.56
2022-08-07T15:34:14.738Z,98994.03
2022-08-07T15:37:03.274Z,98994.53
2022-08-07T15:39:56.853Z,98995.56
2022-08-07T15:42:43.460Z,98998.84
2022-08-07T15:45:22.652Z,98994.03
2022-08-07T15:48:02.249Z,98988.06
2022-08-07T15:50:37.473Z,98985.28
2022-08-07T15:53:42.170Z,98986.31
2022-08-07T15:56:33.445Z,98983.88
2022-08-07T15:59:16.405Z,98986.31
2022-08-07T16:02:01.758Z,98978.13
2022-08-07T16:04:33.541Z,98985.19
2022-08-07T16:08:30.794Z,98983.53
2022-08-07T16:10:02.855Z,98978.13
2022-08-07T16:13:01.255Z,98972.72
2022-08-07T16:16:48.817Z,98974.38
2022-08-07T16:19:59.223Z,98969.81
2022-08-07T16:22:55.057Z,98969.00
2022-08-07T16:25:52.728Z,98971.44
2022-08-07T16:30:07.195Z,98969.00
2022-08-07T16:31:51.407Z,98968.88
2022-08-07T16:34:24.051Z,98967.13
2022-08-07T16:38:06.140Z,98970.06
2022-08-07T16:40:28.103Z,98969.22
2022-08-07T16:43:23.662Z,98971.59
2022-08-07T16:47:09.532Z,98964.31
2022-08-07T16:50:28.057Z,98970.53
2022-08-07T16:54:02.872Z,98973.34
2022-08-07T16:56:23.656Z,98971.47
2022-08-07T16:59:46.982Z,98969.63
2022-08-07T17:02:51.588Z,98966.56
2022-08-07T17:06:26.713Z,98980.28
2022-08-07T17:08:19.091Z,98977.00
2022-08-07T17:10:57.452Z,98962.34
2022-08-07T17:14:17.772Z,98966.69
2022-08-07T17:16:56.063Z,98972.91
2022-08-07T17:20:01.957Z,98963.19
2022-08-07T17:22:56.772Z,98978.28
2022-08-07T17:25:51.264Z,98979.59
2022-08-07T17:28:32.350Z,98976.31
2022-08-07T17:31:16.137Z,98976.31
2022-08-07T17:34:34.578Z,98977.97
2022-08-07T17:37:09.666Z,98975.81
2022-08-07T17:39:57.689Z,98987.09
2022-08-07T17:42:36.322Z,98989.78
2022-08-07T17:45:32.121Z,98981.69
2022-08-07T17:48:10.271Z,98988.38
2022-08-07T17:50:54.144Z,98984.28
2022-08-07T17:54:00.151Z,98992.97
2022-08-07T17:56:49.491Z,98993.88
2022-08-07T17:59:36.207Z,98993.88
2022-08-07T18:02:16.818Z,98999.72
2022-08-07T18:05:01.336Z,99005.09
2022-08-07T18:08:15.500Z,98999.13
2022-08-07T18:12:07.105Z,99000.19
2022-08-07T18:14:01.519Z,99001.00
2022-08-07T18:16:58.094Z,99006.66
2022-08-07T18:21:08.672Z,99014.75
2022-08-07T18:22:35.472Z,99014.75
2022-08-07T18:25:19.516Z,99021.97
2022-08-07T18:27:53.709Z,99020.56
2022-08-07T18:30:50.158Z,99025.59
2022-08-07T18:33:55.072Z,99021.06
2022-08-07T18:36:33.780Z,99020.47
2022-08-07T18:40:05.638Z,99016.69
2022-08-07T18:42:16.263Z,99023.59
2022-08-07T18:45:43.047Z,99021.97
2022-08-07T18:50:06.087Z,99022.44
2022-08-07T18:52:34.674Z,99029.69
2022-08-07T18:54:38.952Z,99023.72
2022-08-07T18:57:30.892Z,99026.19
2022-08-07T19:00:33.130Z,99023.97
2022-08-07T19:03:12.453Z,99030.88
2022-08-07T19:06:05.751Z,99026.78
2022-08-07T19:09:09.377Z,99029.09
2022-08-07T19:12:08.335Z,99028.03
2022-08-07T19:15:04.066Z,99027.00
2022-08-07T19:18:34.020Z,99028.03
2022-08-07T19:21:43.964Z,99042.56
2022-08-07T19:24:12.759Z,99040.09
2022-08-07T19:28:29.120Z,99035.53
2022-08-07T19:31:04.084Z,99040.91
2022-08-07T19:32:47.934Z,99051.69
2022-08-07T19:35:23.292Z,99043.03
2022-08-07T19:37:58.373Z,99048.41
2022-08-07T19:40:31.923Z,99046.78
2022-08-07T19:43:08.706Z,99048.06
2022-08-07T19:46:05.977Z,99040.81
2022-08-07T19:48:42.945Z,99050.16
2022-08-07T19:51:19.797Z,99053.09
2022-08-07T19:54:34.190Z,99055.19
2022-08-07T19:57:51.950Z,99061.38
2022-08-07T19:59:42.029Z,99055.19
2022-08-07T20:02:19.767Z,99058.94
2022-08-07T20:04:52.767Z,99065.97
2022-08-07T20:07:45.921Z,99065.38
2022-08-07T20:10:37.085Z,99062.66
2022-08-07T20:13:23.229Z,99067.47
2022-08-07T20:15:57.726Z,99060.22
2022-08-07T20:18:33.365Z,99060.44
2022-08-07T20:21:20.835Z,99066.44
2022-08-07T20:24:00.470Z,99073.91
2022-08-07T20:26:44.796Z,99076.00
2022-08-07T20:29:49.098Z,99073.53
2022-08-07T20:32:11.562Z,99068.97
2022-08-07T20:35:07.596Z,99073.53
2022-08-07T20:37:59.328Z,99077.53
2022-08-07T20:40:33.084Z,99081.88
2022-08-07T20:43:09.586Z,99074.22
2022-08-07T20:46:25.606Z,99073.31
2022-08-07T20:48:34.665Z,99078.19
2022-08-07T20:51:09.827Z,99078.59
2022-08-07T20:54:03.946Z,99077.09
2022-08-07T20:56:34.688Z,99088.31
2022-08-07T20:59:06.044Z,99083.03
2022-08-07T21:01:58.460Z,99085.34
2022-08-07T21:04:29.806Z,99085.19
2022-08-07T21:07:04.423Z,99075.69
2022-08-07T21:09:52.373Z,99078.97
2022-08-07T21:12:31.822Z,99080.97
2022-08-07T21:15:03.588Z,99084.75
2022-08-07T21:18:06.567Z,99080.97
2022-08-07T21:20:30.240Z,99070.69
2022-08-07T21:23:26.342Z,99077.88
2022-08-07T21:26:20.505Z,99080.41
2022-08-07T21:29:00.744Z,99079.97
2022-08-07T21:32:46.897Z,99080.81
2022-08-07T21:34:49.741Z,99083.72
2022-08-07T21:37:17.101Z,99077.50
2022-08-07T21:39:57.917Z,99090.28
2022-08-07T21:42:56.934Z,99093.78
2022-08-07T21:46:09.033Z,99087.59
2022-08-07T21:48:42.465Z,99091.31
2022-08-07T21:51:24.831Z,99091.91
2022-08-07T21:54:01.039Z,99090.63
2022-08-07T21:56:56.193Z,99090.28
2022-08-07T22:00:04.577Z,99088.63
2022-08-07T22:02:44.820Z,99084.75
2022-08-07T22:05:44.845Z,99094.94
2022-08-07T22:08:10.421Z,99097.84
2022-08-07T22:10:38.389Z,99093.28
2022-08-07T22:13:14.275Z,99095.38
2022-08-07T22:16:39.067Z,99096.66
2022-08-07T22:19:07.411Z,99092.53
2022-08-07T22:22:02.126Z,99096.72
2022-08-07T22:25:07.645Z,99090.88
2022-08-07T22:28:08.162Z,99087.97
2022-08-07T22:30:38.473Z,99094.63
2022-08-07T22:33:12.336Z,99083.88
2022-08-07T22:35:54.690Z,99085.50
2022-08-07T22:39:02.738Z,99081.78
2022-08-07T22:42:04.023Z,99078.50
2022-08-07T22:44:34.468Z,99081.00
2022-08-07T22:47:08.623Z,99075.19
2022-08-07T22:49:59.754Z,99077.28
2022-08-07T22:52:37.624Z,99068.84
2022-08-07T22:55:46.386Z,99073.69
2022-08-07T22:58:28.116Z,99069.72
2022-08-07T23:01:22.516Z,99072.81
2022-08-07T23:03:59.092Z,99067.81
2022-08-07T23:06:59.183Z,99064.88
2022-08-07T23:10:01.037Z,99060.34
2022-08-07T23:12:57.829Z,99069.22
2022-08-07T23:16:06.184Z,99069.22
2022-08-07T23:19:15.204Z,99066.53
2022-08-07T23:21:59.531Z,99061.16
2022-08-07T23:24:57.922Z,99067.13
2022-08-07T23:28:21.026Z,99066.06
2022-08-07T23:31:05.876Z,99061.75
2022-08-07T23:34:22.322Z,99058.25
2022-08-07T23:37:22.379Z,99073.94
2022-08-07T23:40:09.024Z,99071.44
2022-08-07T23:42:55.300Z,99064.22
2022-08-07T23:46:03.754Z,99059.06
2022-08-07T23:49:07.855Z,99064.44
2022-08-07T23:53:01.037Z,99057.41
2022-08-07T23:54:52.812Z,99059.06
2022-08-07T23:57:31.081Z,99053.53
